Arimo, Idaho
Current Conditions -  °F | °C
As of 1:53 PM on Friday 31 Oct 2014 (Local Time) from KPIH Reporting Station
Clear Clear  
Wind Chill: 69°   Ceiling: Unl
Heat Index: 69°   Visibility: 10mi
Dew Point: 25°   Wind: 24mph
Humidity: 19%   Direction: 190°S
Pressure: 29.88"   Gusts: 31mph
Location:  42.56°N, 112.17°W
Report Text: KPIH 311953Z 19021G27KT 10SM CLR 21/M04 A2988 RMK AO2 PK WND 19033/1901 SLP097 T02061039
Loading
Personal Weather Stations






























Interactive Weather Map
Tropical Storm Tracking
New forecast layout! Learn more

10-Day Weather Forecast

Advertisements
Track Severe Weather on mobile